createdAt,value
2022-12-31T00:01:28.683Z,100065.84
2022-12-31T00:03:56.263Z,100058.66
2022-12-31T00:06:24.461Z,100053.03
2022-12-31T00:08:51.864Z,100056.25
2022-12-31T00:11:18.560Z,100058.91
2022-12-31T00:13:46.649Z,100066.06
2022-12-31T00:16:17.179Z,100065.31
2022-12-31T00:18:47.939Z,100068.75
2022-12-31T00:21:15.043Z,100069.34
2022-12-31T00:23:41.561Z,100060.16
2022-12-31T00:26:11.176Z,100062.53
2022-12-31T00:28:38.557Z,100068.16
2022-12-31T00:31:09.372Z,100058.66
2022-12-31T00:33:36.428Z,100060.28
2022-12-31T00:36:08.101Z,100053.56
2022-12-31T00:38:34.875Z,100060.09
2022-12-31T00:41:01.473Z,100062.56
2022-12-31T00:43:27.902Z,100072.50
2022-12-31T00:45:54.433Z,100068.59
2022-12-31T00:48:21.051Z,100072.00
2022-12-31T00:50:47.501Z,100076.63
2022-12-31T00:53:14.113Z,100083.13
2022-12-31T00:55:40.525Z,100078.47
2022-12-31T00:58:06.926Z,100077.31
2022-12-31T01:00:33.344Z,100079.44
2022-12-31T01:03:01.689Z,100077.06
2022-12-31T01:05:30.192Z,100087.09
2022-12-31T01:07:56.594Z,100082.34
2022-12-31T01:10:41.630Z,100072.25
2022-12-31T01:13:08.321Z,100063.50
2022-12-31T01:15:36.393Z,100066.88
2022-12-31T01:18:04.374Z,100073.69
2022-12-31T01:20:30.878Z,100083.50
2022-12-31T01:22:58.381Z,100077.84
2022-12-31T01:25:24.760Z,100088.25
2022-12-31T01:27:51.167Z,100080.75
2022-12-31T01:30:17.597Z,100080.22
2022-12-31T01:32:44.007Z,100076.56
2022-12-31T01:35:10.385Z,100080.50
2022-12-31T01:37:36.859Z,100089.78
2022-12-31T01:40:03.613Z,100087.09
2022-12-31T01:42:30.051Z,100080.03
2022-12-31T01:44:56.478Z,100084.38
2022-12-31T01:47:35.943Z,100078.28
2022-12-31T01:50:16.417Z,100082.19
2022-12-31T01:52:46.593Z,100079.44
2022-12-31T01:55:20.048Z,100092.34
2022-12-31T01:57:48.664Z,100084.78
2022-12-31T02:00:15.652Z,100087.56
2022-12-31T02:02:42.163Z,100091.72
2022-12-31T02:05:30.790Z,100093.78
2022-12-31T02:07:57.565Z,100089.03
2022-12-31T02:10:24.308Z,100081.28
2022-12-31T02:12:51.115Z,100085.13
2022-12-31T02:15:19.776Z,100080.66
2022-12-31T02:17:56.414Z,100086.88
2022-12-31T02:20:51.590Z,100086.63
2022-12-31T02:23:21.436Z,100085.88
2022-12-31T02:25:53.854Z,100082.63
2022-12-31T02:28:43.650Z,100085.78
2022-12-31T02:31:17.788Z,100090.91
2022-12-31T02:33:54.985Z,100101.00
2022-12-31T02:36:25.314Z,100098.97
2022-12-31T02:38:52.370Z,100095.00
2022-12-31T02:41:42.880Z,100089.81
2022-12-31T02:44:42.084Z,100093.38
2022-12-31T02:47:08.393Z,100088.75
2022-12-31T02:49:43.787Z,100089.91
2022-12-31T02:52:22.671Z,100085.88
2022-12-31T02:55:07.785Z,100082.78
2022-12-31T02:57:47.599Z,100080.84
2022-12-31T03:00:34.223Z,100084.56
2022-12-31T03:03:01.305Z,100086.28
2022-12-31T03:05:30.625Z,100095.06
2022-12-31T03:07:57.030Z,100087.47
2022-12-31T03:10:23.532Z,100088.84
2022-12-31T03:12:51.372Z,100090.44
2022-12-31T03:15:26.224Z,100084.38
2022-12-31T03:18:00.142Z,100086.75
2022-12-31T03:20:56.892Z,100079.16
2022-12-31T03:24:09.401Z,100081.09
2022-12-31T03:26:35.776Z,100079.16
2022-12-31T03:29:02.215Z,100088.47
2022-12-31T03:31:29.000Z,100084.50
2022-12-31T03:33:55.446Z,100086.13
2022-12-31T03:36:21.828Z,100079.53
2022-12-31T03:38:52.552Z,100089.03
2022-12-31T03:41:19.284Z,100087.72
2022-12-31T03:43:45.684Z,100103.75
2022-12-31T03:46:12.086Z,100095.56
2022-12-31T03:48:39.881Z,100098.66
2022-12-31T03:51:06.291Z,100098.66
2022-12-31T03:53:34.765Z,100100.16
2022-12-31T03:56:01.155Z,100101.06
2022-12-31T03:58:27.586Z,100104.63
2022-12-31T04:00:54.027Z,100102.41
2022-12-31T04:03:20.488Z,100116.44
2022-12-31T04:05:55.261Z,100100.22
2022-12-31T04:08:21.750Z,100106.50
2022-12-31T04:10:48.156Z,100103.13
2022-12-31T04:13:14.563Z,100088.69
2022-12-31T04:15:40.961Z,100090.94
2022-12-31T04:18:07.424Z,100106.38
2022-12-31T04:20:33.814Z,100094.56
2022-12-31T04:23:00.216Z,100099.28
2022-12-31T04:25:26.619Z,100098.28
2022-12-31T04:27:53.017Z,100090.56
2022-12-31T04:30:19.451Z,100077.81
2022-12-31T04:32:45.909Z,100050.16
2022-12-31T04:35:12.311Z,100047.41
2022-12-31T04:37:38.721Z,100044.84
2022-12-31T04:40:07.093Z,100057.16
2022-12-31T04:42:34.331Z,100055.66
2022-12-31T04:45:00.821Z,100059.88
2022-12-31T04:47:27.227Z,100068.34
2022-12-31T04:49:53.624Z,100058.22
2022-12-31T04:52:20.021Z,100055.81
2022-12-31T04:54:46.461Z,100052.25
2022-12-31T04:57:12.919Z,100062.63
2022-12-31T04:59:39.356Z,100072.13
2022-12-31T05:02:05.922Z,100074.16
2022-12-31T05:04:32.500Z,100091.13
2022-12-31T05:06:58.935Z,100091.22
2022-12-31T05:09:27.561Z,100099.66
2022-12-31T05:11:53.958Z,100098.63
2022-12-31T05:14:20.502Z,100095.19
2022-12-31T05:16:46.899Z,100111.19
2022-12-31T05:19:13.429Z,100124.53
2022-12-31T05:21:39.832Z,100124.41
2022-12-31T05:24:06.566Z,100126.75
2022-12-31T05:26:32.974Z,100122.69
2022-12-31T05:29:00.429Z,100118.88
2022-12-31T05:31:26.896Z,100137.00
2022-12-31T05:33:53.304Z,100138.50
2022-12-31T05:36:19.711Z,100132.88
2022-12-31T05:38:46.140Z,100130.69
2022-12-31T05:41:12.543Z,100138.91
2022-12-31T05:43:38.913Z,100132.94
2022-12-31T05:46:05.437Z,100128.50
2022-12-31T05:48:32.061Z,100129.34
2022-12-31T05:50:58.509Z,100130.19
2022-12-31T05:53:24.935Z,100136.16
2022-12-31T05:55:51.494Z,100123.44
2022-12-31T05:58:17.961Z,100121.50
2022-12-31T06:00:44.509Z,100122.03
2022-12-31T06:03:11.047Z,100131.44
2022-12-31T06:05:42.408Z,100126.84
2022-12-31T06:08:09.787Z,100111.06
2022-12-31T06:10:36.246Z,100112.97
2022-12-31T06:13:02.635Z,100121.00
2022-12-31T06:15:29.026Z,100116.22
2022-12-31T06:17:55.438Z,100132.00
2022-12-31T06:20:21.872Z,100139.66
2022-12-31T06:22:48.262Z,100144.59
2022-12-31T06:25:14.899Z,100140.19
2022-12-31T06:27:41.446Z,100144.38
2022-12-31T06:30:08.666Z,100146.16
2022-12-31T06:32:35.105Z,100140.84
2022-12-31T06:35:01.581Z,100142.84
2022-12-31T06:37:28.107Z,100125.13
2022-12-31T06:39:54.515Z,100112.88
2022-12-31T06:42:20.914Z,100099.84
2022-12-31T06:44:47.303Z,100116.50
2022-12-31T06:47:13.681Z,100137.53
2022-12-31T06:49:40.849Z,100147.66
2022-12-31T06:52:07.369Z,100159.41
2022-12-31T06:54:34.039Z,100150.66
2022-12-31T06:57:00.589Z,100165.59
2022-12-31T06:59:29.222Z,100159.91
2022-12-31T07:02:21.838Z,100153.44
2022-12-31T07:05:25.488Z,100132.19
2022-12-31T07:08:10.037Z,100143.16
2022-12-31T07:11:05.845Z,100123.00
2022-12-31T07:13:49.608Z,100141.56
2022-12-31T07:16:36.683Z,100142.75
2022-12-31T07:19:57.905Z,100173.47
2022-12-31T07:22:24.946Z,100168.50
2022-12-31T07:24:51.648Z,100159.50
2022-12-31T07:27:20.975Z,100167.84
2022-12-31T07:30:20.594Z,100165.16
2022-12-31T07:33:15.225Z,100173.16
2022-12-31T07:35:50.765Z,100171.75
2022-12-31T07:38:23.125Z,100167.69
2022-12-31T07:41:10.099Z,100154.03
2022-12-31T07:44:06.664Z,100143.84
2022-12-31T07:46:48.604Z,100151.75
2022-12-31T07:49:15.549Z,100160.94
2022-12-31T07:51:42.268Z,100176.84
2022-12-31T07:54:13.676Z,100174.97
2022-12-31T07:56:41.002Z,100166.88
2022-12-31T07:59:38.344Z,100163.47
2022-12-31T08:02:14.455Z,100152.13
2022-12-31T08:04:53.210Z,100163.25
2022-12-31T08:07:26.139Z,100161.75
2022-12-31T08:10:02.310Z,100154.91
2022-12-31T08:12:32.658Z,100147.94
2022-12-31T08:14:59.246Z,100148.06
2022-12-31T08:17:25.982Z,100148.28
2022-12-31T08:19:52.677Z,100153.63
2022-12-31T08:22:42.270Z,100145.28
2022-12-31T08:25:25.852Z,100158.00
2022-12-31T08:28:48.900Z,100153.91
2022-12-31T08:31:19.887Z,100139.81
2022-12-31T08:33:59.362Z,100163.50
2022-12-31T08:36:50.217Z,100172.25
2022-12-31T08:39:34.899Z,100167.69
2022-12-31T08:42:04.118Z,100160.50
2022-12-31T08:44:38.961Z,100159.53
2022-12-31T08:47:38.277Z,100161.03
2022-12-31T08:50:05.916Z,100155.13
2022-12-31T08:52:32.527Z,100161.03
2022-12-31T08:54:59.156Z,100160.16
2022-12-31T08:57:40.736Z,100170.00
2022-12-31T09:00:14.481Z,100174.44
2022-12-31T09:03:03.002Z,100173.19
2022-12-31T09:05:50.884Z,100174.59
2022-12-31T09:08:33.828Z,100175.44
2022-12-31T09:11:53.002Z,100177.56
2022-12-31T09:14:42.136Z,100170.75
2022-12-31T09:17:28.539Z,100176.72
2022-12-31T09:19:55.199Z,100177.97
2022-12-31T09:22:21.709Z,100187.78
2022-12-31T09:24:48.366Z,100188.91
2022-12-31T09:27:27.525Z,100190.59
2022-12-31T09:30:06.298Z,100191.13
2022-12-31T09:32:32.580Z,100186.38
2022-12-31T09:35:17.098Z,100187.38
2022-12-31T09:37:49.125Z,100196.00
2022-12-31T09:40:29.876Z,100183.25
2022-12-31T09:43:05.252Z,100189.09
2022-12-31T09:45:43.270Z,100183.56
2022-12-31T09:48:47.825Z,100179.72
2022-12-31T09:51:26.389Z,100181.28
2022-12-31T09:54:09.226Z,100180.38
2022-12-31T09:56:39.431Z,100179.44
2022-12-31T09:59:13.196Z,100179.78
2022-12-31T10:02:07.420Z,100196.28
2022-12-31T10:04:48.379Z,100197.06
2022-12-31T10:07:20.373Z,100186.34
2022-12-31T10:10:25.918Z,100195.41
2022-12-31T10:13:10.578Z,100175.22
2022-12-31T10:15:58.360Z,100179.56
2022-12-31T10:19:09.626Z,100195.94
2022-12-31T10:21:45.673Z,100192.88
2022-12-31T10:24:39.460Z,100183.34
2022-12-31T10:27:24.617Z,100204.63
2022-12-31T10:30:16.546Z,100202.59
2022-12-31T10:33:00.569Z,100206.88
2022-12-31T10:35:43.930Z,100204.63
2022-12-31T10:38:24.764Z,100214.31
2022-12-31T10:41:09.579Z,100224.75
2022-12-31T10:44:24.233Z,100232.94
2022-12-31T10:47:18.276Z,100233.13
2022-12-31T10:50:22.455Z,100246.94
2022-12-31T10:53:20.239Z,100234.75
2022-12-31T10:55:49.546Z,100251.16
2022-12-31T10:58:44.257Z,100250.84
2022-12-31T11:01:20.058Z,100246.31
2022-12-31T11:04:04.795Z,100236.22
2022-12-31T11:06:37.212Z,100231.19
2022-12-31T11:09:42.389Z,100241.59
2022-12-31T11:12:23.249Z,100244.56
2022-12-31T11:15:15.832Z,100248.13
2022-12-31T11:17:59.282Z,100246.84
2022-12-31T11:20:34.991Z,100246.97
2022-12-31T11:23:35.558Z,100243.41
2022-12-31T11:26:29.904Z,100249.66
2022-12-31T11:29:17.990Z,100248.75
2022-12-31T11:32:01.685Z,100248.31
2022-12-31T11:35:00.494Z,100247.72
2022-12-31T11:37:33.280Z,100231.78
2022-12-31T11:40:21.507Z,100239.69
2022-12-31T11:42:54.511Z,100237.16
2022-12-31T11:45:34.896Z,100244.44
2022-12-31T11:48:30.540Z,100253.22
2022-12-31T11:51:14.617Z,100246.34
2022-12-31T11:53:50.101Z,100240.69
2022-12-31T11:56:22.806Z,100243.97
2022-12-31T11:58:53.702Z,100242.47
2022-12-31T12:01:25.381Z,100220.44
2022-12-31T12:03:51.884Z,100227.56
2022-12-31T12:06:22.896Z,100228.47
2022-12-31T12:08:49.759Z,100217.16
2022-12-31T12:11:27.819Z,100230.56
2022-12-31T12:13:54.182Z,100212.09
2022-12-31T12:16:22.271Z,100218.78
2022-12-31T12:19:03.863Z,100220.88
2022-12-31T12:21:30.997Z,100215.69
2022-12-31T12:24:18.057Z,100236.38
2022-12-31T12:26:45.713Z,100238.63
2022-12-31T12:29:15.210Z,100235.22
2022-12-31T12:31:42.183Z,100239.38
2022-12-31T12:34:27.355Z,100216.44
2022-12-31T12:36:53.835Z,100224.31
2022-12-31T12:39:22.979Z,100218.66
2022-12-31T12:42:10.569Z,100218.09
2022-12-31T12:44:37.043Z,100217.19
2022-12-31T12:47:05.864Z,100215.84
2022-12-31T12:49:38.772Z,100210.34
2022-12-31T12:52:23.899Z,100212.13
2022-12-31T12:55:05.595Z,100201.09
2022-12-31T12:57:50.813Z,100202.31
2022-12-31T13:00:24.987Z,100211.25
2022-12-31T13:03:20.352Z,100199.31
2022-12-31T13:06:05.472Z,100225.53
2022-12-31T13:08:51.645Z,100222.22
2022-12-31T13:11:42.917Z,100225.81
2022-12-31T13:14:21.727Z,100222.84
2022-12-31T13:17:00.431Z,100241.59
2022-12-31T13:19:50.383Z,100226.09
2022-12-31T13:22:23.121Z,100238.03
2022-12-31T13:25:26.686Z,100204.91
2022-12-31T13:27:56.860Z,100222.22
2022-12-31T13:30:32.331Z,100216.53
2022-12-31T13:33:05.745Z,100212.66
2022-12-31T13:35:47.818Z,100218.66
2022-12-31T13:38:29.756Z,100228.19
2022-12-31T13:41:36.731Z,100217.28
2022-12-31T13:44:11.785Z,100219.22
2022-12-31T13:46:44.906Z,100210.13
2022-12-31T13:49:31.506Z,100208.81
2022-12-31T13:52:12.978Z,100212.94
2022-12-31T13:54:51.407Z,100213.84
2022-12-31T13:57:49.456Z,100220.41
2022-12-31T14:00:23.089Z,100229.66
2022-12-31T14:03:02.513Z,100218.19
2022-12-31T14:05:33.968Z,100235.91
2022-12-31T14:08:02.086Z,100231.28
2022-12-31T14:10:31.638Z,100253.50
2022-12-31T14:13:49.745Z,100257.97
2022-12-31T14:16:22.355Z,100250.50
2022-12-31T14:19:12.458Z,100257.66
2022-12-31T14:22:00.852Z,100254.53
2022-12-31T14:24:44.434Z,100264.06
2022-12-31T14:27:22.868Z,100257.91
2022-12-31T14:29:58.309Z,100261.81
2022-12-31T14:32:43.068Z,100257.91
2022-12-31T14:35:34.981Z,100257.00
2022-12-31T14:38:16.350Z,100258.19
2022-12-31T14:40:57.001Z,100271.94
2022-12-31T14:44:20.084Z,100266.56
2022-12-31T14:47:11.254Z,100271.50
2022-12-31T14:49:55.504Z,100265.66
2022-12-31T14:52:31.040Z,100267.94
2022-12-31T14:55:15.011Z,100288.31
2022-12-31T14:58:17.281Z,100288.59
2022-12-31T15:00:34.023Z,100290.13
2022-12-31T15:03:06.797Z,100286.97
2022-12-31T15:05:35.300Z,100305.56
2022-12-31T15:08:13.830Z,100295.00
2022-12-31T15:10:44.193Z,100299.63
2022-12-31T15:13:37.501Z,100299.59
2022-12-31T15:16:14.150Z,100305.88
2022-12-31T15:18:52.932Z,100308.25
2022-12-31T15:21:42.040Z,100312.75
2022-12-31T15:24:30.548Z,100309.16
2022-12-31T15:27:05.783Z,100306.31
2022-12-31T15:29:34.721Z,100290.34
2022-12-31T15:32:03.462Z,100311.25
2022-12-31T15:34:33.803Z,100294.56
2022-12-31T15:37:27.093Z,100315.31
2022-12-31T15:40:33.576Z,100305.31
2022-12-31T15:43:10.044Z,100306.47
2022-12-31T15:45:38.615Z,100309.59
2022-12-31T15:48:17.451Z,100321.53
2022-12-31T15:50:44.571Z,100333.31
2022-12-31T15:53:30.218Z,100326.91
2022-12-31T15:55:58.322Z,100336.78
2022-12-31T15:58:30.133Z,100334.97
2022-12-31T16:01:20.251Z,100352.28
2022-12-31T16:03:50.178Z,100340.53
2022-12-31T16:06:16.741Z,100343.78
2022-12-31T16:08:48.933Z,100343.47
2022-12-31T16:11:16.319Z,100324.44
2022-12-31T16:13:46.288Z,100331.56
2022-12-31T16:16:33.340Z,100330.09
2022-12-31T16:19:00.285Z,100348.28
2022-12-31T16:21:29.969Z,100345.59
2022-12-31T16:23:57.875Z,100345.16
2022-12-31T16:26:30.348Z,100342.94
2022-12-31T16:29:00.200Z,100349.59
2022-12-31T16:31:28.490Z,100331.56
2022-12-31T16:34:11.671Z,100326.19
2022-12-31T16:36:39.786Z,100329.06
2022-12-31T16:39:36.156Z,100340.09
2022-12-31T16:42:19.552Z,100337.84
2022-12-31T16:44:47.471Z,100334.81
2022-12-31T16:47:25.187Z,100334.97
2022-12-31T16:49:58.754Z,100330.06
2022-12-31T16:52:29.014Z,100335.16
2022-12-31T16:54:56.004Z,100320.84
2022-12-31T16:57:24.587Z,100335.16
2022-12-31T17:00:04.775Z,100340.19
2022-12-31T17:02:44.171Z,100331.53
2022-12-31T17:05:22.596Z,100345.25
2022-12-31T17:07:49.266Z,100352.13
2022-12-31T17:10:20.810Z,100355.69
2022-12-31T17:15:41.818Z,100341.38
2022-12-31T17:18:15.431Z,100350.91
2022-12-31T17:20:41.997Z,100335.72
2022-12-31T17:23:09.154Z,100336.59
2022-12-31T17:25:38.693Z,100335.66
2022-12-31T17:28:19.387Z,100337.78
2022-12-31T17:30:45.811Z,100330.91
2022-12-31T17:33:12.486Z,100343.72
2022-12-31T17:35:43.968Z,100342.25
2022-12-31T17:38:23.066Z,100345.22
2022-12-31T17:41:05.523Z,100332.97
2022-12-31T17:43:38.769Z,100333.47
2022-12-31T17:46:14.432Z,100332.44
2022-12-31T17:48:41.716Z,100333.34
2022-12-31T17:51:08.508Z,100338.66
2022-12-31T17:53:35.052Z,100318.97
2022-12-31T17:56:04.770Z,100327.97
2022-12-31T17:58:46.636Z,100318.75
2022-12-31T18:01:16.082Z,100307.44
2022-12-31T18:03:42.721Z,100306.81
2022-12-31T18:06:16.105Z,100329.50
2022-12-31T18:08:43.269Z,100330.22
2022-12-31T18:11:20.065Z,100331.56
2022-12-31T18:13:46.816Z,100333.94
2022-12-31T18:16:13.567Z,100327.66
2022-12-31T18:18:42.428Z,100322.31
2022-12-31T18:21:29.912Z,100316.38
2022-12-31T18:26:23.126Z,100311.84
2022-12-31T18:28:49.881Z,100292.53
2022-12-31T18:31:22.274Z,100300.53
2022-12-31T18:33:50.106Z,100309.97
2022-12-31T18:36:18.419Z,100318.44
2022-12-31T18:38:45.274Z,100308.63
2022-12-31T18:41:26.895Z,100308.34
2022-12-31T18:43:53.795Z,100304.16
2022-12-31T18:46:22.643Z,100301.16
2022-12-31T18:48:49.448Z,100297.91
2022-12-31T18:51:31.023Z,100297.44
2022-12-31T18:53:58.721Z,100295.75
2022-12-31T18:56:25.272Z,100307.09
2022-12-31T18:58:52.073Z,100322.59
2022-12-31T19:01:27.018Z,100322.28
2022-12-31T19:03:55.517Z,100335.41
2022-12-31T19:06:22.253Z,100325.88
2022-12-31T19:08:51.126Z,100313.69
2022-12-31T19:11:17.983Z,100311.03
2022-12-31T19:13:44.621Z,100318.44
2022-12-31T19:16:11.234Z,100318.34
2022-12-31T19:18:37.661Z,100316.06
2022-12-31T19:21:04.860Z,100308.34
2022-12-31T19:23:31.357Z,100309.84
2022-12-31T19:25:57.912Z,100308.06
2022-12-31T19:28:26.725Z,100302.81
2022-12-31T19:30:53.207Z,100285.09
2022-12-31T19:33:20.044Z,100289.88
2022-12-31T19:35:46.595Z,100284.63
2022-12-31T19:38:22.325Z,100291.97
2022-12-31T19:40:49.664Z,100292.25
2022-12-31T19:43:17.977Z,100285.13
2022-12-31T19:45:45.007Z,100288.66
2022-12-31T19:48:17.246Z,100305.97
2022-12-31T19:50:46.173Z,100311.44
2022-12-31T19:53:15.381Z,100326.34
2022-12-31T19:55:42.329Z,100313.41
2022-12-31T19:58:12.890Z,100303.53
2022-12-31T20:00:39.320Z,100319.31
2022-12-31T20:03:05.785Z,100320.22
2022-12-31T20:05:32.434Z,100342.44
2022-12-31T20:07:58.946Z,100327.50
2022-12-31T20:10:25.354Z,100335.41
2022-12-31T20:12:51.895Z,100329.59
2022-12-31T20:15:18.549Z,100340.13
2022-12-31T20:17:44.984Z,100331.16
2022-12-31T20:20:11.623Z,100341.06
2022-12-31T20:22:38.778Z,100338.38
2022-12-31T20:25:05.795Z,100339.69
2022-12-31T20:27:32.234Z,100325.88
2022-12-31T20:29:58.704Z,100333.59
2022-12-31T20:32:25.138Z,100338.38
2022-12-31T20:34:51.558Z,100347.16
2022-12-31T20:37:17.943Z,100342.81
2022-12-31T20:39:44.517Z,100334.00
2022-12-31T20:42:10.974Z,100346.53
2022-12-31T20:44:37.675Z,100343.09
2022-12-31T20:47:04.248Z,100342.56
2022-12-31T20:50:09.068Z,100359.56
2022-12-31T20:52:17.554Z,100351.16
2022-12-31T20:54:44.099Z,100350.88
2022-12-31T20:57:10.571Z,100335.38
2022-12-31T20:59:37.067Z,100336.81
2022-12-31T21:04:50.106Z,100316.63
2022-12-31T21:07:17.067Z,100327.63
2022-12-31T21:09:43.544Z,100326.13
2022-12-31T21:12:31.645Z,100336.88
2022-12-31T21:14:58.088Z,100349.84
2022-12-31T21:17:24.665Z,100345.53
2022-12-31T21:19:51.141Z,100352.38
2022-12-31T21:22:17.699Z,100363.38
2022-12-31T21:24:44.189Z,100360.72
2022-12-31T21:27:11.008Z,100351.16
2022-12-31T21:29:55.674Z,100352.38
2022-12-31T21:32:24.313Z,100357.47
2022-12-31T21:35:14.501Z,100352.38
2022-12-31T21:37:59.066Z,100364.28
2022-12-31T21:40:23.905Z,100361.63
2022-12-31T21:42:50.586Z,100391.16
2022-12-31T21:45:17.009Z,100390.22
2022-12-31T21:48:02.222Z,100363.22
2022-12-31T21:50:28.758Z,100377.25
2022-12-31T21:52:55.185Z,100379.50
2022-12-31T21:55:40.429Z,100365.03
2022-12-31T22:01:11.868Z,100376.22
2022-12-31T22:03:38.645Z,100374.41
2022-12-31T22:06:13.102Z,100373.97
2022-12-31T22:08:41.264Z,100384.28
2022-12-31T22:11:08.537Z,100367.53
2022-12-31T22:13:35.413Z,100391.09
2022-12-31T22:16:05.673Z,100381.97
2022-12-31T22:18:39.017Z,100384.81
2022-12-31T22:21:18.166Z,100392.25
2022-12-31T22:23:46.032Z,100389.13
2022-12-31T22:26:14.957Z,100401.50
2022-12-31T22:28:43.222Z,100385.38
2022-12-31T22:31:13.454Z,100396.44
2022-12-31T22:33:39.975Z,100399.69
2022-12-31T22:36:20.240Z,100411.34
2022-12-31T22:38:47.086Z,100404.75
2022-12-31T22:41:25.594Z,100400.78
2022-12-31T22:44:02.223Z,100393.03
2022-12-31T22:46:31.617Z,100402.88
2022-12-31T22:49:02.236Z,100407.97
2022-12-31T22:51:55.118Z,100411.38
2022-12-31T22:54:26.333Z,100414.97
2022-12-31T22:56:53.071Z,100413.47
2022-12-31T22:59:19.668Z,100396.78
2022-12-31T23:01:46.162Z,100404.56
2022-12-31T23:04:14.251Z,100414.63
2022-12-31T23:06:47.263Z,100409.56
2022-12-31T23:09:34.358Z,100399.38
2022-12-31T23:12:01.788Z,100412.25
2022-12-31T23:14:47.160Z,100412.25
2022-12-31T23:17:42.576Z,100410.16
2022-12-31T23:20:36.015Z,100422.06
2022-12-31T23:23:07.753Z,100435.06
2022-12-31T23:25:36.145Z,100418.09
2022-12-31T23:28:03.444Z,100420.28
2022-12-31T23:30:29.914Z,100422.97
2022-12-31T23:32:56.381Z,100431.47
2022-12-31T23:35:23.279Z,100434.63
2022-12-31T23:37:50.041Z,100426.56
2022-12-31T23:40:21.154Z,100435.50
2022-12-31T23:42:48.330Z,100450.25
2022-12-31T23:45:14.837Z,100440.53
2022-12-31T23:47:41.466Z,100445.00
2022-12-31T23:50:08.255Z,100455.69
2022-12-31T23:52:36.382Z,100441.94
2022-12-31T23:55:03.831Z,100433.72
2022-12-31T23:57:30.561Z,100434.38
2022-12-31T23:59:57.073Z,100444.06
